createdAt,value
2017-10-07T00:03:22.977Z,19.20
2017-10-07T00:06:50.386Z,19.20
2017-10-07T00:10:16.341Z,19.20
2017-10-07T00:13:41.824Z,19.20
2017-10-07T00:17:07.723Z,19.20
2017-10-07T00:20:33.983Z,19.20
2017-10-07T00:23:59.428Z,19.20
2017-10-07T00:27:25.256Z,19.20
2017-10-07T00:30:50.605Z,19.10
2017-10-07T00:34:17.814Z,19.10
2017-10-07T00:37:43.382Z,19.10
2017-10-07T00:41:09.041Z,19.10
2017-10-07T00:44:34.394Z,19.10
2017-10-07T00:48:00.447Z,19.10
2017-10-07T00:51:26.332Z,19.10
2017-10-07T00:54:53.151Z,19.00
2017-10-07T00:58:23.921Z,19.00
2017-10-07T01:01:50.744Z,19.00
2017-10-07T01:05:17.121Z,19.00
2017-10-07T01:08:42.460Z,19.00
2017-10-07T01:12:08.410Z,19.00
2017-10-07T01:15:34.532Z,19.00
2017-10-07T01:19:02.195Z,18.90
2017-10-07T01:22:28.056Z,18.90
2017-10-07T01:25:54.871Z,18.90
2017-10-07T01:29:20.489Z,18.90
2017-10-07T01:32:46.124Z,18.90
2017-10-07T01:36:15.063Z,18.80
2017-10-07T01:39:41.221Z,18.80
2017-10-07T01:43:06.634Z,18.80
2017-10-07T01:46:33.726Z,18.80
2017-10-07T01:49:59.417Z,18.80
2017-10-07T01:53:24.889Z,18.80
2017-10-07T01:56:50.857Z,18.80
2017-10-07T02:00:16.438Z,18.80
2017-10-07T02:03:42.601Z,18.80
2017-10-07T02:07:08.470Z,18.70
2017-10-07T02:10:34.042Z,18.80
2017-10-07T02:13:59.627Z,18.70
2017-10-07T02:17:27.022Z,18.70
2017-10-07T02:20:52.594Z,18.70
2017-10-07T02:24:18.017Z,18.70
2017-10-07T02:27:43.634Z,18.70
2017-10-07T02:31:09.188Z,18.70
2017-10-07T02:34:34.873Z,18.70
2017-10-07T02:38:01.437Z,18.60
2017-10-07T02:41:26.930Z,18.60
2017-10-07T02:44:52.630Z,18.60
2017-10-07T02:48:17.937Z,18.60
2017-10-07T02:51:43.393Z,18.60
2017-10-07T02:55:14.366Z,18.60
2017-10-07T02:58:40.641Z,18.60
2017-10-07T03:02:05.969Z,18.50
2017-10-07T03:05:31.757Z,18.60
2017-10-07T03:08:57.121Z,18.60
2017-10-07T03:12:23.125Z,18.60
2017-10-07T03:15:49.962Z,18.50
2017-10-07T03:19:15.753Z,18.50
2017-10-07T03:22:42.057Z,18.40
2017-10-07T03:26:08.202Z,18.40
2017-10-07T03:29:34.402Z,18.40
2017-10-07T03:32:59.736Z,18.40
2017-10-07T03:36:28.612Z,18.30
2017-10-07T03:39:54.735Z,18.30
2017-10-07T03:43:20.931Z,18.30
2017-10-07T03:46:48.753Z,18.30
2017-10-07T03:50:14.918Z,18.30
2017-10-07T03:53:40.608Z,18.20
2017-10-07T03:57:06.284Z,18.20
2017-10-07T04:00:31.601Z,18.20
2017-10-07T04:03:56.983Z,18.20
2017-10-07T04:10:53.469Z,18.10
2017-10-07T04:14:18.933Z,18.10
2017-10-07T04:17:44.809Z,18.10
2017-10-07T04:21:10.561Z,18.10
2017-10-07T04:24:36.642Z,18.10
2017-10-07T04:28:02.611Z,18.00
2017-10-07T04:31:28.104Z,18.00
2017-10-07T04:34:56.050Z,18.10
2017-10-07T04:38:21.424Z,18.00
2017-10-07T04:41:46.629Z,18.10
2017-10-07T04:45:12.365Z,18.00
2017-10-07T04:48:38.555Z,18.00
2017-10-07T04:52:03.959Z,18.00
2017-10-07T04:55:29.859Z,18.10
2017-10-07T04:58:55.398Z,18.40
2017-10-07T05:02:21.009Z,18.80
2017-10-07T05:05:47.020Z,19.20
2017-10-07T05:09:13.283Z,19.90
2017-10-07T05:12:40.980Z,19.90
2017-10-07T05:16:07.342Z,20.30
2017-10-07T05:19:32.686Z,21.00
2017-10-07T05:22:58.291Z,21.50
2017-10-07T05:26:24.157Z,22.00
2017-10-07T05:29:49.588Z,22.30
2017-10-07T05:33:15.028Z,22.40
2017-10-07T05:36:42.647Z,22.50
2017-10-07T05:40:08.321Z,22.60
2017-10-07T05:43:34.961Z,22.90
2017-10-07T05:47:00.992Z,23.00
2017-10-07T05:50:26.395Z,23.00
2017-10-07T05:53:51.785Z,23.30
2017-10-07T05:57:17.684Z,23.30
2017-10-07T06:00:43.670Z,23.60
2017-10-07T06:04:09.059Z,23.60
2017-10-07T06:07:34.902Z,23.60
2017-10-07T06:11:00.705Z,23.60
2017-10-07T06:14:26.304Z,23.90
2017-10-07T06:17:53.187Z,23.80
2017-10-07T06:21:18.907Z,23.80
2017-10-07T06:24:44.440Z,23.90
2017-10-07T06:28:10.620Z,23.80
2017-10-07T06:31:37.147Z,23.90
2017-10-07T06:35:02.769Z,23.90
2017-10-07T06:38:29.690Z,23.90
2017-10-07T06:41:55.022Z,23.90
2017-10-07T06:45:21.487Z,23.90
2017-10-07T06:48:48.372Z,23.90
2017-10-07T06:52:14.625Z,23.90
2017-10-07T06:55:40.232Z,23.90
2017-10-07T06:59:10.523Z,23.90
2017-10-07T07:02:35.961Z,24.00
2017-10-07T07:06:02.307Z,23.80
2017-10-07T07:09:29.282Z,23.80
2017-10-07T07:12:54.682Z,23.80
2017-10-07T07:16:20.845Z,23.80
2017-10-07T07:19:52.856Z,23.80
2017-10-07T07:23:22.402Z,23.60
2017-10-07T07:26:47.925Z,23.70
2017-10-07T07:30:14.610Z,23.70
2017-10-07T07:33:39.984Z,23.60
2017-10-07T07:37:05.468Z,23.50
2017-10-07T07:40:34.157Z,23.50
2017-10-07T07:43:59.941Z,23.60
2017-10-07T07:47:29.582Z,23.50
2017-10-07T07:50:55.007Z,23.50
2017-10-07T07:54:20.599Z,23.60
2017-10-07T07:57:46.669Z,23.60
2017-10-07T08:01:12.350Z,23.50
2017-10-07T08:04:37.767Z,23.40
2017-10-07T08:08:09.093Z,23.30
2017-10-07T08:11:35.651Z,23.40
2017-10-07T08:15:04.450Z,23.30
2017-10-07T08:18:29.924Z,23.30
2017-10-07T08:21:55.999Z,23.20
2017-10-07T08:25:26.808Z,23.20
2017-10-07T08:28:52.192Z,23.30
2017-10-07T08:32:21.412Z,23.30
2017-10-07T08:35:47.610Z,23.20
2017-10-07T08:39:13.027Z,23.10
2017-10-07T08:42:41.284Z,23.20
2017-10-07T08:46:08.886Z,23.30
2017-10-07T08:49:34.892Z,23.30
2017-10-07T08:53:02.608Z,23.20
2017-10-07T08:56:29.386Z,23.20
2017-10-07T09:03:29.786Z,23.10
2017-10-07T09:06:58.449Z,23.20
2017-10-07T09:10:24.181Z,23.10
2017-10-07T09:13:49.837Z,23.10
2017-10-07T09:17:23.945Z,23.20
2017-10-07T09:20:49.166Z,23.20
2017-10-07T09:24:15.297Z,23.10
2017-10-07T09:27:41.274Z,23.20
2017-10-07T09:31:15.503Z,23.20
2017-10-07T09:34:42.752Z,23.20
2017-10-07T09:38:08.974Z,23.10
2017-10-07T09:41:39.522Z,23.10
2017-10-07T09:45:05.876Z,23.40
2017-10-07T09:48:31.697Z,23.40
2017-10-07T09:52:00.025Z,23.30
2017-10-07T09:55:25.409Z,23.30
2017-10-07T09:58:52.018Z,23.50
2017-10-07T10:02:18.105Z,23.50
2017-10-07T10:05:43.621Z,23.50
2017-10-07T10:09:10.242Z,23.40
2017-10-07T10:12:37.136Z,23.40
2017-10-07T10:16:05.039Z,23.40
2017-10-07T10:23:02.131Z,23.40
2017-10-07T10:26:27.957Z,23.30
2017-10-07T10:29:58.570Z,23.30
2017-10-07T10:33:26.101Z,23.20
2017-10-07T10:36:52.396Z,23.10
2017-10-07T10:40:22.717Z,22.90
2017-10-07T10:43:48.130Z,22.80
2017-10-07T10:47:14.472Z,22.70
2017-10-07T10:50:40.638Z,22.60
2017-10-07T10:54:06.117Z,22.50
2017-10-07T10:57:37.159Z,22.30
2017-10-07T11:01:02.778Z,22.30
2017-10-07T11:04:28.229Z,22.40
2017-10-07T11:07:54.482Z,22.50
2017-10-07T11:11:21.578Z,22.40
2017-10-07T11:14:47.451Z,22.40
2017-10-07T11:18:19.513Z,22.60
2017-10-07T11:21:49.519Z,22.60
2017-10-07T11:25:15.140Z,22.50
2017-10-07T11:28:42.508Z,22.40
2017-10-07T11:32:16.566Z,22.50
2017-10-07T11:35:42.204Z,22.60
2017-10-07T11:39:07.970Z,22.60
2017-10-07T11:42:33.690Z,22.50
2017-10-07T11:45:59.156Z,22.40
2017-10-07T11:49:32.807Z,22.50
2017-10-07T11:52:59.807Z,22.40
2017-10-07T11:56:27.553Z,22.40
2017-10-07T11:59:53.584Z,22.40
2017-10-07T12:03:20.192Z,22.40
2017-10-07T12:06:46.917Z,22.50
2017-10-07T12:10:16.757Z,22.50
2017-10-07T12:13:43.275Z,22.50
2017-10-07T12:17:10.754Z,22.50
2017-10-07T12:20:41.571Z,22.50
2017-10-07T12:24:07.193Z,22.60
2017-10-07T12:27:34.394Z,22.50
2017-10-07T12:30:59.900Z,22.50
2017-10-07T12:34:36.430Z,22.60
2017-10-07T12:38:01.842Z,22.50
2017-10-07T12:41:27.238Z,22.60
2017-10-07T12:44:53.661Z,22.50
2017-10-07T12:48:20.923Z,22.50
2017-10-07T12:51:50.918Z,22.40
2017-10-07T12:55:16.574Z,22.60
2017-10-07T12:58:42.007Z,22.70
2017-10-07T13:02:08.532Z,22.50
2017-10-07T13:05:34.803Z,22.50
2017-10-07T13:09:00.180Z,22.50
2017-10-07T13:12:30.189Z,22.60
2017-10-07T13:15:55.915Z,22.70
2017-10-07T13:19:21.298Z,22.50
2017-10-07T13:22:48.801Z,22.40
2017-10-07T13:26:14.411Z,22.40
2017-10-07T13:29:39.900Z,22.60
2017-10-07T13:33:08.228Z,22.60
2017-10-07T13:36:38.148Z,22.50
2017-10-07T13:40:04.026Z,22.50
2017-10-07T13:43:30.530Z,22.40
2017-10-07T13:46:55.986Z,22.20
2017-10-07T13:50:21.755Z,22.20
2017-10-07T13:53:47.652Z,22.00
2017-10-07T13:57:13.693Z,22.10
2017-10-07T14:00:42.552Z,22.10
2017-10-07T14:04:10.985Z,22.10
2017-10-07T14:07:37.246Z,22.00
2017-10-07T14:11:03.789Z,22.20
2017-10-07T14:14:29.808Z,22.10
2017-10-07T14:17:59.665Z,22.20
2017-10-07T14:21:26.103Z,22.00
2017-10-07T14:24:56.646Z,22.00
2017-10-07T14:28:23.116Z,22.00
2017-10-07T14:31:48.829Z,21.90
2017-10-07T14:35:16.125Z,21.80
2017-10-07T14:38:43.280Z,21.70
2017-10-07T14:42:09.895Z,21.50
2017-10-07T14:45:35.261Z,21.50
2017-10-07T14:49:05.612Z,21.40
2017-10-07T14:52:33.335Z,21.30
2017-10-07T14:56:01.404Z,21.20
2017-10-07T14:59:31.008Z,21.20
2017-10-07T15:02:58.265Z,21.10
2017-10-07T15:06:24.673Z,21.00
2017-10-07T15:09:52.255Z,20.90
2017-10-07T15:13:19.135Z,20.70
2017-10-07T15:16:46.143Z,20.70
2017-10-07T15:20:11.812Z,20.60
2017-10-07T15:23:36.996Z,20.50
2017-10-07T15:27:03.282Z,20.40
2017-10-07T15:30:28.362Z,20.40
2017-10-07T15:33:54.063Z,20.30
2017-10-07T15:37:20.633Z,20.20
2017-10-07T15:40:46.266Z,20.20
2017-10-07T15:44:11.896Z,20.20
2017-10-07T15:47:41.519Z,20.10
2017-10-07T15:51:23.869Z,20.00
2017-10-07T15:54:52.118Z,19.90
2017-10-07T15:58:24.344Z,19.90
2017-10-07T16:05:19.849Z,19.90
2017-10-07T16:08:46.769Z,20.10
2017-10-07T16:12:11.946Z,20.20
2017-10-07T16:15:38.896Z,20.10
2017-10-07T16:19:05.685Z,20.10
2017-10-07T16:22:31.038Z,20.10
2017-10-07T16:25:56.728Z,20.10
2017-10-07T16:29:22.431Z,20.00
2017-10-07T16:32:56.416Z,20.00
2017-10-07T16:36:22.810Z,19.90
2017-10-07T16:39:53.776Z,19.90
2017-10-07T16:43:19.344Z,19.90
2017-10-07T16:46:45.210Z,19.80
2017-10-07T16:50:12.546Z,19.80
2017-10-07T16:53:38.473Z,19.80
2017-10-07T16:57:04.671Z,19.70
2017-10-07T17:00:31.542Z,19.70
2017-10-07T17:03:57.091Z,19.70
2017-10-07T17:07:24.020Z,19.80
2017-10-07T17:10:50.170Z,20.10
2017-10-07T17:14:21.269Z,20.00
2017-10-07T17:17:50.337Z,20.10
2017-10-07T17:21:15.837Z,20.00
2017-10-07T17:24:41.302Z,20.20
2017-10-07T17:28:06.921Z,20.40
2017-10-07T17:31:32.638Z,20.50
2017-10-07T17:34:58.130Z,20.50
2017-10-07T17:38:24.092Z,20.60
2017-10-07T17:41:49.702Z,20.80
2017-10-07T17:45:15.240Z,20.80
2017-10-07T17:48:40.818Z,20.80
2017-10-07T17:52:07.450Z,20.80
2017-10-07T17:55:37.927Z,20.70
2017-10-07T17:59:03.537Z,20.80
2017-10-07T18:02:29.651Z,20.80
2017-10-07T18:05:56.597Z,20.70
2017-10-07T18:12:55.832Z,20.50
2017-10-07T18:17:02.771Z,20.40
2017-10-07T18:21:16.219Z,20.30
2017-10-07T18:24:46.612Z,20.30
2017-10-07T18:28:12.128Z,20.20
2017-10-07T18:31:37.946Z,20.10
2017-10-07T18:35:03.904Z,20.00
2017-10-07T18:38:29.433Z,20.30
2017-10-07T18:41:55.710Z,20.50
2017-10-07T18:45:21.377Z,20.50
2017-10-07T18:48:47.609Z,20.50
2017-10-07T18:52:12.996Z,20.50
2017-10-07T18:55:39.625Z,20.30
2017-10-07T18:59:05.186Z,20.40
2017-10-07T19:02:30.659Z,20.30
2017-10-07T19:05:57.069Z,20.10
2017-10-07T19:09:22.583Z,20.10
2017-10-07T19:12:47.988Z,20.10
2017-10-07T19:16:13.780Z,20.00
2017-10-07T19:19:40.219Z,19.90
2017-10-07T19:23:05.567Z,19.90
2017-10-07T19:26:31.073Z,19.80
2017-10-07T19:29:56.875Z,19.80
2017-10-07T19:33:23.270Z,19.70
2017-10-07T19:36:49.955Z,19.70
2017-10-07T19:40:15.795Z,19.70
2017-10-07T19:43:41.182Z,19.80
2017-10-07T19:47:06.778Z,20.00
2017-10-07T19:50:32.253Z,20.10
2017-10-07T19:53:59.485Z,20.10
2017-10-07T19:57:24.933Z,20.00
2017-10-07T20:00:55.209Z,20.40
2017-10-07T20:04:21.308Z,20.40
2017-10-07T20:07:48.340Z,20.50
2017-10-07T20:11:13.749Z,20.40
2017-10-07T20:14:39.633Z,20.60
2017-10-07T20:18:05.052Z,20.70
2017-10-07T20:21:31.047Z,20.80
2017-10-07T20:24:57.266Z,20.80
2017-10-07T20:28:22.886Z,20.80
2017-10-07T20:31:48.448Z,20.90
2017-10-07T20:35:13.869Z,21.20
2017-10-07T20:38:39.522Z,21.40
2017-10-07T20:42:04.950Z,21.40
2017-10-07T20:45:30.645Z,21.40
2017-10-07T20:48:56.060Z,21.40
2017-10-07T20:52:21.650Z,21.40
2017-10-07T20:55:47.309Z,21.40
2017-10-07T20:59:12.598Z,21.40
2017-10-07T21:02:38.973Z,21.20
2017-10-07T21:06:04.422Z,21.20
2017-10-07T21:09:30.865Z,21.10
2017-10-07T21:12:56.238Z,21.00
2017-10-07T21:16:21.975Z,20.90
2017-10-07T21:19:47.330Z,20.80
2017-10-07T21:23:12.858Z,20.70
2017-10-07T21:26:39.645Z,20.40
2017-10-07T21:30:05.198Z,20.40
2017-10-07T21:33:30.912Z,20.30
2017-10-07T21:36:56.360Z,20.20
2017-10-07T21:40:23.305Z,20.00
2017-10-07T21:43:48.977Z,20.00
2017-10-07T21:47:14.967Z,19.90
2017-10-07T21:50:40.727Z,19.90
2017-10-07T21:54:06.217Z,19.80
2017-10-07T21:57:31.653Z,19.80
2017-10-07T22:00:58.161Z,19.70
2017-10-07T22:04:23.619Z,19.70
2017-10-07T22:07:49.219Z,19.60
2017-10-07T22:11:14.633Z,19.50
2017-10-07T22:14:41.496Z,19.50
2017-10-07T22:18:07.025Z,19.50
2017-10-07T22:21:33.362Z,19.40
2017-10-07T22:25:02.054Z,19.40
2017-10-07T22:28:27.728Z,19.30
2017-10-07T22:31:53.968Z,19.20
2017-10-07T22:35:23.925Z,19.20
2017-10-07T22:38:49.587Z,19.20
2017-10-07T22:42:14.987Z,19.20
2017-10-07T22:45:41.185Z,19.10
2017-10-07T22:49:06.801Z,19.10
2017-10-07T22:52:40.525Z,19.10
2017-10-07T22:56:05.806Z,19.10
2017-10-07T22:59:31.449Z,19.10
2017-10-07T23:02:56.867Z,19.00
2017-10-07T23:06:22.258Z,19.00
2017-10-07T23:09:47.734Z,19.00
2017-10-07T23:13:13.897Z,18.90
2017-10-07T23:16:39.355Z,18.90
2017-10-07T23:20:04.896Z,18.90
2017-10-07T23:23:30.289Z,18.90
2017-10-07T23:26:56.018Z,18.90
2017-10-07T23:30:23.145Z,18.90
2017-10-07T23:33:48.636Z,18.80
2017-10-07T23:37:14.006Z,18.80
2017-10-07T23:40:39.316Z,18.80
2017-10-07T23:44:04.674Z,18.80
2017-10-07T23:47:29.944Z,18.80
2017-10-07T23:50:55.253Z,18.80
2017-10-07T23:54:21.189Z,18.80
2017-10-07T23:57:46.692Z,18.80
